createdAt,value
2022-11-14T00:04:00.559Z,7.60
2022-11-14T00:08:58.801Z,7.60
2022-11-14T00:13:56.112Z,7.60
2022-11-14T00:18:53.614Z,7.70
2022-11-14T00:23:51.157Z,7.70
2022-11-14T00:28:49.315Z,7.60
2022-11-14T00:33:46.781Z,7.60
2022-11-14T00:38:44.035Z,7.60
2022-11-14T00:43:41.439Z,7.70
2022-11-14T00:48:38.772Z,7.70
2022-11-14T00:53:36.309Z,7.80
2022-11-14T00:58:33.998Z,7.80
2022-11-14T01:03:31.413Z,7.70
2022-11-14T01:08:29.004Z,7.80
2022-11-14T01:13:27.715Z,7.80
2022-11-14T01:18:25.049Z,7.70
2022-11-14T01:23:22.309Z,7.70
2022-11-14T01:28:20.933Z,7.70
2022-11-14T01:33:18.090Z,7.70
2022-11-14T01:38:16.012Z,7.70
2022-11-14T01:43:19.425Z,7.60
2022-11-14T01:48:37.385Z,7.70
2022-11-14T01:53:35.071Z,7.70
2022-11-14T01:58:34.736Z,7.80
2022-11-14T02:03:33.751Z,7.80
2022-11-14T02:08:32.065Z,7.70
2022-11-14T02:13:29.502Z,7.60
2022-11-14T02:18:26.935Z,7.80
2022-11-14T02:23:29.657Z,7.70
2022-11-14T02:28:27.846Z,7.80
2022-11-14T02:33:25.342Z,7.80
2022-11-14T02:38:22.884Z,7.80
2022-11-14T02:43:20.323Z,7.70
2022-11-14T02:48:18.162Z,7.70
2022-11-14T02:53:15.793Z,7.60
2022-11-14T02:58:13.032Z,7.60
2022-11-14T03:03:10.447Z,7.70
2022-11-14T03:08:08.017Z,7.70
2022-11-14T03:13:05.322Z,7.70
2022-11-14T03:18:02.726Z,7.70
2022-11-14T03:23:00.345Z,7.60
2022-11-14T03:27:57.823Z,7.60
2022-11-14T03:32:56.672Z,7.60
2022-11-14T03:37:56.642Z,7.50
2022-11-14T03:42:54.300Z,7.70
2022-11-14T03:47:51.747Z,7.70
2022-11-14T03:52:53.407Z,7.80
2022-11-14T03:57:50.924Z,7.80
2022-11-14T04:02:48.497Z,7.80
2022-11-14T04:07:45.797Z,7.80
2022-11-14T04:12:51.358Z,7.70
2022-11-14T04:17:48.805Z,7.70
2022-11-14T04:22:47.083Z,7.80
2022-11-14T04:27:44.764Z,7.70
2022-11-14T04:32:42.278Z,7.70
2022-11-14T04:37:41.809Z,7.60
2022-11-14T04:42:39.495Z,7.60
2022-11-14T04:47:37.594Z,7.70
2022-11-14T04:52:35.564Z,7.70
2022-11-14T04:57:33.440Z,7.60
2022-11-14T05:02:33.135Z,7.70
2022-11-14T05:07:38.659Z,7.60
2022-11-14T05:12:39.618Z,7.60
2022-11-14T05:17:37.188Z,7.70
2022-11-14T05:22:38.099Z,7.70
2022-11-14T05:27:38.138Z,7.60
2022-11-14T05:32:35.383Z,7.70
2022-11-14T05:37:38.482Z,7.60
2022-11-14T05:42:35.894Z,7.70
2022-11-14T05:47:33.298Z,7.70
2022-11-14T05:52:31.874Z,7.60
2022-11-14T05:57:31.183Z,7.70
2022-11-14T06:02:28.438Z,7.70
2022-11-14T06:07:25.740Z,7.70
2022-11-14T06:12:22.942Z,7.70
2022-11-14T06:17:20.304Z,7.60
2022-11-14T06:22:17.767Z,7.60
2022-11-14T06:27:15.087Z,7.60
2022-11-14T06:32:12.356Z,7.70
2022-11-14T06:37:09.818Z,7.70
2022-11-14T06:42:06.999Z,7.80
2022-11-14T06:47:04.287Z,7.80
2022-11-14T06:52:01.553Z,7.80
2022-11-14T06:56:58.863Z,7.70
2022-11-14T07:01:56.289Z,7.70
2022-11-14T07:06:53.527Z,7.70
2022-11-14T07:11:50.839Z,7.70
2022-11-14T07:16:48.350Z,7.80
2022-11-14T07:21:45.659Z,7.90
2022-11-14T07:26:43.094Z,7.90
2022-11-14T07:31:41.095Z,7.90
2022-11-14T07:36:38.615Z,8.00
2022-11-14T07:41:36.384Z,8.10
2022-11-14T07:46:33.642Z,8.30
2022-11-14T07:51:30.901Z,8.70
2022-11-14T07:56:28.259Z,8.90
2022-11-14T08:01:26.216Z,9.10
2022-11-14T08:06:23.682Z,9.30
2022-11-14T08:11:41.011Z,9.10
2022-11-14T08:16:38.806Z,9.00
2022-11-14T08:21:36.672Z,8.90
2022-11-14T08:26:34.532Z,8.60
2022-11-14T08:31:32.081Z,8.50
2022-11-14T08:36:29.460Z,8.40
2022-11-14T08:41:26.735Z,8.60
2022-11-14T08:46:24.026Z,8.80
2022-11-14T08:51:21.425Z,9.20
2022-11-14T08:56:18.609Z,9.30
2022-11-14T09:01:16.052Z,9.30
2022-11-14T09:06:13.369Z,9.50
2022-11-14T09:11:11.701Z,9.30
2022-11-14T09:16:10.547Z,9.00
2022-11-14T09:21:09.454Z,8.80
2022-11-14T09:26:08.691Z,8.80
2022-11-14T09:31:08.752Z,8.80
2022-11-14T09:36:09.436Z,8.90
2022-11-14T09:41:23.007Z,8.90
2022-11-14T09:46:26.423Z,9.10
2022-11-14T09:51:39.765Z,9.30
2022-11-14T09:56:37.082Z,9.20
2022-11-14T10:02:07.094Z,9.20
2022-11-14T10:07:19.907Z,9.60
2022-11-14T10:12:52.390Z,9.80
2022-11-14T10:18:43.180Z,9.70
2022-11-14T10:24:20.903Z,9.60
2022-11-14T10:29:36.964Z,9.70
2022-11-14T10:34:54.540Z,10.00
2022-11-14T10:40:00.455Z,10.50
2022-11-14T10:45:26.830Z,11.00
2022-11-14T10:50:56.250Z,11.50
2022-11-14T10:56:04.308Z,10.90
2022-11-14T11:01:40.576Z,10.70
2022-11-14T11:06:39.308Z,10.80
2022-11-14T11:11:41.371Z,11.10
2022-11-14T11:16:39.247Z,11.40
2022-11-14T11:21:51.782Z,11.70
2022-11-14T11:27:09.663Z,12.20
2022-11-14T11:32:09.256Z,12.40
2022-11-14T11:37:16.105Z,12.40
2022-11-14T11:43:31.756Z,12.50
2022-11-14T11:48:30.051Z,12.30
2022-11-14T11:53:38.531Z,12.50
2022-11-14T11:58:51.891Z,12.80
2022-11-14T12:03:52.647Z,12.90
2022-11-14T12:09:14.409Z,12.30
2022-11-14T12:14:39.766Z,11.80
2022-11-14T12:19:42.923Z,11.40
2022-11-14T12:25:18.819Z,11.30
2022-11-14T12:30:22.182Z,11.10
2022-11-14T12:35:32.313Z,11.30
2022-11-14T12:40:41.564Z,11.40
2022-11-14T12:45:41.734Z,11.50
2022-11-14T12:50:42.466Z,11.30
2022-11-14T12:55:45.596Z,11.40
2022-11-14T13:00:45.804Z,11.50
2022-11-14T13:06:01.442Z,11.50
2022-11-14T13:10:59.449Z,11.30
2022-11-14T13:16:17.602Z,11.10
2022-11-14T13:21:45.879Z,11.10
2022-11-14T13:26:51.148Z,11.10
2022-11-14T13:31:51.443Z,11.10
2022-11-14T13:37:27.317Z,10.90
2022-11-14T13:42:50.662Z,11.00
2022-11-14T13:48:23.726Z,11.00
2022-11-14T13:53:25.079Z,11.20
2022-11-14T13:58:57.957Z,11.10
2022-11-14T14:04:13.507Z,11.00
2022-11-14T14:09:45.425Z,10.90
2022-11-14T14:15:02.202Z,10.90
2022-11-14T14:20:22.631Z,10.80
2022-11-14T14:25:34.903Z,10.80
2022-11-14T14:30:32.922Z,10.70
2022-11-14T14:35:39.082Z,10.50
2022-11-14T14:40:41.740Z,10.40
2022-11-14T14:45:53.884Z,10.20
2022-11-14T14:50:56.145Z,10.20
2022-11-14T14:56:05.694Z,10.10
2022-11-14T15:01:11.036Z,10.10
2022-11-14T15:06:35.311Z,10.10
2022-11-14T15:11:33.365Z,9.90
2022-11-14T15:16:31.623Z,9.80
2022-11-14T15:21:30.531Z,9.70
2022-11-14T15:26:31.752Z,9.60
2022-11-14T15:31:29.160Z,9.50
2022-11-14T15:36:26.462Z,9.40
2022-11-14T15:41:25.639Z,9.30
2022-11-14T15:46:37.922Z,9.40
2022-11-14T15:51:55.703Z,9.30
2022-11-14T15:56:54.588Z,9.20
2022-11-14T16:01:56.743Z,9.20
2022-11-14T16:06:54.100Z,9.10
2022-11-14T16:11:51.741Z,9.10
2022-11-14T16:16:49.611Z,9.10
2022-11-14T16:21:46.902Z,9.10
2022-11-14T16:26:44.985Z,9.00
2022-11-14T16:31:42.589Z,9.00
2022-11-14T16:36:40.272Z,9.00
2022-11-14T16:41:37.586Z,9.10
2022-11-14T16:46:34.962Z,9.10
2022-11-14T16:51:47.363Z,8.90
2022-11-14T16:56:46.702Z,8.70
2022-11-14T17:01:44.464Z,8.70
2022-11-14T17:06:41.855Z,8.80
2022-11-14T17:11:39.146Z,8.80
2022-11-14T17:16:37.019Z,8.70
2022-11-14T17:21:34.273Z,8.60
2022-11-14T17:26:31.622Z,8.50
2022-11-14T17:31:33.741Z,8.60
2022-11-14T17:36:34.541Z,8.60
2022-11-14T17:41:33.840Z,8.60
2022-11-14T17:46:31.459Z,8.50
2022-11-14T17:51:29.053Z,8.40
2022-11-14T17:56:27.525Z,8.40
2022-11-14T18:01:26.373Z,8.40
2022-11-14T18:06:25.587Z,8.40
2022-11-14T18:11:22.904Z,8.50
2022-11-14T18:16:20.529Z,8.50
2022-11-14T18:21:23.303Z,8.60
2022-11-14T18:26:27.191Z,8.60
2022-11-14T18:31:25.458Z,8.50
2022-11-14T18:36:23.679Z,8.40
2022-11-14T18:41:22.320Z,8.40
2022-11-14T18:46:22.027Z,8.40
2022-11-14T18:51:22.463Z,8.40
2022-11-14T18:56:20.832Z,8.50
2022-11-14T19:01:26.648Z,8.60
2022-11-14T19:06:24.444Z,8.60
2022-11-14T19:11:40.481Z,8.60
2022-11-14T19:16:38.722Z,8.60
2022-11-14T19:21:37.460Z,8.60
2022-11-14T19:26:34.930Z,8.60
2022-11-14T19:31:33.402Z,8.60
2022-11-14T19:36:58.122Z,8.50
2022-11-14T19:41:48.488Z,8.50
2022-11-14T19:46:47.786Z,8.40
2022-11-14T19:51:45.675Z,8.50
2022-11-14T19:56:43.384Z,8.50
2022-11-14T20:01:42.446Z,8.60
2022-11-14T20:06:41.758Z,8.70
2022-11-14T20:11:54.239Z,8.70
2022-11-14T20:16:51.723Z,8.70
2022-11-14T20:21:49.515Z,8.70
2022-11-14T20:26:49.590Z,8.70
2022-11-14T20:31:47.092Z,8.60
2022-11-14T20:37:09.186Z,8.50
2022-11-14T20:42:02.485Z,8.50
2022-11-14T20:46:59.864Z,8.60
2022-11-14T20:51:57.652Z,8.50
2022-11-14T20:56:55.242Z,8.50
2022-11-14T21:01:52.573Z,8.50
2022-11-14T21:06:49.921Z,8.60
2022-11-14T21:11:47.403Z,8.60
2022-11-14T21:16:45.594Z,8.50
2022-11-14T21:21:42.868Z,8.50
2022-11-14T21:26:40.602Z,8.50
2022-11-14T21:31:42.635Z,8.50
2022-11-14T21:36:47.496Z,8.50
2022-11-14T21:41:48.646Z,8.50
2022-11-14T21:46:49.858Z,8.40
2022-11-14T21:51:48.606Z,8.50
2022-11-14T21:56:45.890Z,8.40
2022-11-14T22:02:04.647Z,8.50
2022-11-14T22:07:08.617Z,8.50
2022-11-14T22:12:06.095Z,8.50
2022-11-14T22:17:03.393Z,8.50
2022-11-14T22:22:00.798Z,8.40
2022-11-14T22:26:58.336Z,8.40
2022-11-14T22:31:57.015Z,8.40
2022-11-14T22:36:54.511Z,8.40
2022-11-14T22:41:51.851Z,8.50
2022-11-14T22:46:49.131Z,8.50
2022-11-14T22:51:46.356Z,8.50
2022-11-14T22:56:44.565Z,8.40
2022-11-14T23:01:41.871Z,8.40
2022-11-14T23:06:39.444Z,8.40
2022-11-14T23:11:36.755Z,8.40
2022-11-14T23:16:34.444Z,8.40
2022-11-14T23:21:37.412Z,8.40
2022-11-14T23:26:35.634Z,8.40
2022-11-14T23:31:32.936Z,8.40
2022-11-14T23:36:30.275Z,8.30
2022-11-14T23:41:27.871Z,8.30
2022-11-14T23:46:25.498Z,8.40
2022-11-14T23:51:23.185Z,8.50
2022-11-14T23:56:20.649Z,8.40
